Boulder City, Nevada Weather observations

Data are for observation ending at time listed.
 Day   Time    Ave.   Ave.  Ave.  Vector   Max.   Stn.    Total    Solar   Ave.  
  of    of     Air    Rel.  Wind   Wind    Wind   Baro.  Precip.   Rad.    Soil  
Year   Day     Temp.  Hum.  Speed  Dir.    Gust   Pres.                    Temp. 
2026   (PST)    F      %     mph   deg.    mph     mb.     in.     W/m2     F   
------------------------------------------------------------------------------
 241   22:20   91.9    19    4.2   196      7.0   928.0    0.00       0    99.7
 241   22:30   91.4    19    4.4   206      7.4   928.0    0.00       0    99.5
 241   22:40   91.0    20    3.8   217      5.6   928.0    0.00       0    99.4
 241   22:50   91.0    20    4.3   224      6.4   928.0    0.00       0    99.3
 241   23:00   90.7    20    3.5   233      5.6   928.0    0.00       0    99.3
 241   23:10   90.4    20    3.2   215      4.8   928.0    0.00       0    99.1
 241   23:20   90.0    20    1.9   197      3.0   928.0    0.00       0    99.0
 241   23:30   88.8    21    1.9   184      3.1   927.9    0.00       0    99.0
 241   23:40   88.4    22    2.8   143      4.5   927.8    0.00       0    98.8
 241   23:50   88.1    22    1.7   220      3.1   927.7    0.00       0    98.7
 242    0:00   87.8    22    1.5   220      3.4   927.7    0.00       0    98.6
 242    0:10   87.1    23    2.2   240      3.7   927.6    0.00       0    98.5
 242    0:20   86.6    23    2.7   194      4.5   927.5    0.00       0    98.4
 242    0:30   86.5    24    2.5   212      4.2   927.5    0.00       0    98.3
 242    0:40   86.7    23    2.9   225      3.9   927.5    0.00       0    98.2
 242    0:50   86.7    23    3.2   218      5.0   927.4    0.00       0    98.1
 242    1:00   87.0    24    4.8   228      7.2   927.5    0.00       0    97.9
 242    1:10   87.3    24    3.8   221      6.4   927.5    0.00       0    97.9
 242    1:20   87.6    24    4.0   214      6.4   927.5    0.00       0    97.8
 242    1:30   88.2    23    4.8   195     10.2   927.5    0.00       0    97.6
 242    1:40   88.4    23    3.7   191      6.5   927.5    0.00       0    97.6
 242    1:50   88.0    24    4.0   196      6.7   927.5    0.00       0    97.5
 242    2:00   87.7    24    3.2   198      5.6   927.6    0.00       0    97.3
 242    2:10   87.0    24    2.9   218      5.1   927.7    0.00       0    97.3
 242    2:20   86.6    25    2.1   194      3.3   927.8    0.00       0    97.2
 242    2:30   86.0    25    1.8   213      2.9   927.8    0.00       0    97.1
 242    2:40   85.6    26    2.3   191      3.4   927.8    0.00       0    96.9
 242    2:50   85.8    25    3.0   189      4.8   927.8    0.00       0    96.8
 242    3:00   87.0    24    5.1   180      8.0   927.8    0.00       0    96.7
 242    3:10   87.2    24    4.8   184      9.9   927.8    0.00       0    96.7
 242    3:20   87.3    24    6.0   186     12.5   927.8    0.00       0    96.6
 242    3:30   88.0    23    8.0   179     12.2   927.8    0.00       0    96.5
 242    3:40   88.0    24    7.1   179     11.7   927.8    0.00       0    96.4
 242    3:50   87.7    24    7.9   175     12.9   927.9    0.00       0    96.2
 242    4:00   87.5    24    7.0   177     11.6   928.0    0.00       0    96.3
 242    4:10   86.9    24    5.7   198      9.5   928.0    0.00       0    96.1
 242    4:20   86.6    25    5.9   202     12.7   928.0    0.00       0    96.0
 242    4:30   86.4    25    5.7   214      9.5   928.3    0.00       0    95.9
 242    4:40   85.9    26    3.9   216      6.0   928.5    0.00       0    95.8
 242    4:50   85.2    26    4.3   221      7.2   928.5    0.00       0    95.8
 242    5:00   84.9    26    5.3   226      7.7   928.6    0.00       0    95.8
 242    5:10   84.8    26    4.5   215      6.9   928.7    0.00       5    95.6
 242    5:20   84.8    26    3.3   187      5.1   928.8    0.00      13    95.5
 242    5:30   84.5    26    4.4   168      7.7   928.8    0.00      23    95.4
 242    5:40   84.9    26    6.1   161      9.9   928.9    0.00      49    95.3
 242    5:50   85.4    25    6.5   175     10.0   929.1    0.00      66    95.3
 242    6:00   86.1    24    6.8   179      9.9   929.2    0.00     104    95.1
 242    6:10   87.2    23    7.3   183     12.2   929.3    0.00     202    95.0
 242    6:20   87.5    23    6.5   184     10.3   929.5    0.00     122    94.9
 242    6:30   87.3    22    8.4   182     11.7   929.6    0.00      95    94.9
 242    6:40   87.8    22    8.6   178     12.2   929.7    0.00     258    94.8
 242    6:50   89.0    21    6.7   178     11.2   929.8    0.00     295    94.7
 242    7:00   89.1    20    7.5   179     13.2   930.0    0.00     170    94.6
 242    7:10   89.2    19    7.9   166     12.9   930.0    0.00     310    94.7
 242    7:20   89.5    18    7.8   162     13.1   930.1    0.00     246    94.5
 242    7:30   89.7    18    8.1   161     14.9   930.1    0.00     460    94.5
 242    7:40   91.4    16    7.3   152     11.4   930.3    0.00     605    94.5
 242    7:50   91.6    16    7.5   165     11.7   930.5    0.00     507    94.5
 242    8:00   92.6    16    6.6   142     10.7   930.7    0.00     625    94.4
 242    8:10   92.4    16    7.4   159     13.5   930.8    0.00     417    94.4
 242    8:20   92.1    15    6.4   153     12.1   930.8    0.00     414    94.4
 242    8:30   92.0    15    7.1   186     13.4   930.9    0.00     361    94.4
 242    8:40   93.0    14    7.8   189     14.0   930.8    0.00     639    94.5
 242    8:50   93.3    14    6.7   201     11.6   930.7    0.00     679    94.6
 242    9:00   94.0    14    8.6   203     15.6   930.9    0.00     685    94.6
 242    9:10   94.3    13    9.0   210     14.8   931.0    0.00     754    94.7
 242    9:20   94.3    13    9.5   221     18.6   931.0    0.00     786    94.8
 242    9:30   95.5    13    8.5   207     15.6   931.1    0.00     782    94.9
 242    9:40   95.0    13    9.0   209     15.6   931.2    0.00     591    95.0
 242    9:50   95.7    13    9.7   205     17.6   931.1    0.00     179    95.2
 242   10:00   95.5    13    9.4   193     17.5   931.2    0.00     395    95.3
 242   10:10   95.7    12    9.2   204     16.2   931.1    0.00     688    95.5
 242   10:20   96.8    12    7.7   172     16.7   931.1    0.00     743    95.8
 242   10:30   97.5    12    9.8   205     16.8   931.1    0.00     530    95.9
 242   10:40   96.7    12    8.2   207     17.5   931.1    0.00     447    95.9
 242   10:50   97.4    12    9.0   201     15.1   931.0    0.00     949    96.4
 242   11:00   97.7    12   11.5   217     18.9   930.9    0.00     961    96.7
 242   11:10   97.1    13   11.1   214     22.4   930.7    0.00     618    96.9
 242   11:20   98.3    12   10.2   210     16.6   930.6    0.00     953    97.2
 242   11:30   99.5    12    8.7   220     15.1   930.4    0.00     858    97.4
 242   11:40   99.6    12   10.7   198     20.0   930.2    0.00     794    97.8
 242   11:50  100.1    12   10.5   206     24.4   930.2    0.00     780    97.8
 242   12:00   99.6    12    8.4   195     20.6   930.1    0.00     900    98.1
 242   12:10   99.7    12    9.3   211     15.6   930.2    0.00     683    98.3
 242   12:20   99.8    12   10.9   204     21.0   930.1    0.00     715    98.6
 242   12:30  100.1    12    7.5   210     15.9   930.0    0.00     714    98.9
 242   12:40  100.7    12    8.9   184     16.7   930.0    0.00     603    99.2
 242   12:50  100.0    12   10.1   192     18.3   930.0    0.00     590    99.2
 242   13:00  100.0    12    7.3   176     13.7   929.9    0.00     598    99.6
 242   13:10  100.1    12    6.6   204     15.3   929.7    0.00     556    99.8
 242   13:20  100.7    12    9.1   217     19.9   929.6    0.00     640    100.0
 242   13:30  100.3    12    8.5   224     15.4   929.4    0.00     661    100.2
 242   13:40   99.9    12    7.3   215     14.2   929.4    0.00     593    100.5
 242   13:50  100.1    12    8.2   232     16.1   929.2    0.00     555    100.4
 242   14:00   99.8    12    6.8   229     14.2   929.1    0.00     499    100.8
 242   14:10  100.1    12    6.3   237     12.2   928.9    0.00     593    101.0
 242   14:20  100.7    12    9.0   226     15.9   928.9    0.00     619    101.2
 242   14:30  100.5    12    9.1   206     16.4   928.7    0.00     582    101.2
 242   14:40  101.1    11    9.1   191     16.7   928.7    0.00     527    101.4
 242   14:50  100.1    12    6.9   227     13.9   928.6    0.00     542    101.6
 242   15:00  100.4    12    6.5   235     14.6   928.5    0.00     470    101.7
 242   15:10  100.7    12    6.9   233     13.2   928.4    0.00     425    101.7
 242   15:20  100.1    12    8.1   228     14.3   928.3    0.00     438    101.8
 242   15:30  100.4    12    5.1   244     12.7   928.3    0.00     392    101.9
 242   15:40  100.1    12    9.7   228     15.9   928.3    0.00     384    102.0
 242   15:50   99.5    12    8.1   230     15.5   928.2    0.00     326    102.2
 242   16:00   99.6    12    7.2   229     15.4   928.1    0.00     317    102.2
 242   16:10   99.8    11    6.2   225     11.5   928.0    0.00     299    102.1
 242   16:20   99.4    11    6.2   227     11.9   927.9    0.00     257    102.2
 242   16:30   99.6    11    6.7   231     12.5   927.8    0.00     269    102.3
 242   16:40   99.2    11    5.0   250     11.1   927.8    0.00     241    102.3
 242   16:50   98.9    12    5.2   257     12.6   927.8    0.00     223    102.3
 242   17:00   98.7    12    4.5   247      9.9   927.7    0.00     178    102.2
 242   17:10   98.3    12    4.9   251     12.5   927.6    0.00     151    102.2
 242   17:20   97.8    12    5.2   240     10.6   927.6    0.00     113    102.1
 242   17:30   97.2    12    5.9   236     10.8   927.5    0.00      85    102.3
 242   17:40   96.7    12    3.1   230      6.5   927.4    0.00      46    102.1
 242   17:50   96.5    12    4.8   229      8.8   927.3    0.00      24    102.0
 242   18:00   96.3    12    3.8   217      8.0   927.3    0.00      15    102.0
 242   18:10   95.9    12    2.8   225      6.0   927.3    0.00       6    101.9
 242   18:20   95.2    13    2.4   230      3.7   927.2    0.00       3    101.8
 242   18:30   94.7    13    3.0   235      6.0   927.2    0.00       1    101.8
 242   18:40   94.1    13    2.2   227      3.9   927.2    0.00       0    101.8
 242   18:50   93.7    13    2.8   238      5.6   927.3    0.00       0    101.6
 242   19:00   93.7    13    2.9   246      5.1   927.4    0.00       0    101.7
 242   19:10   93.2    13    2.0   253      4.2   927.5    0.00       0    101.4
 242   19:20   92.3    13    1.7   243      4.0   927.6    0.00       0    101.4
 242   19:30   91.5    14    1.7   245      2.7   927.8    0.00       0    101.2
 242   19:40   90.9    14    1.8   235      2.8   927.9    0.00       0    101.1
 242   19:50   90.5    14    2.2   214      2.9   928.0    0.00       0    101.0
 242   20:00   90.2    15    2.8   219      3.9   928.0    0.00       0    100.9
 242   20:10   89.9    15    2.9   239      3.9   928.0    0.00       0    100.7
 242   20:20   89.3    15    2.4   252      3.9   928.0    0.00       0    100.6
 242   20:30   88.9    15    2.3   256      4.6   928.0    0.00       0    100.4
 242   20:40   88.5    16    2.7   223      4.2   928.1    0.00       0    100.4
 242   20:50   88.2    16    2.9   215      3.7   928.1    0.00       0    100.2
 242   21:00   87.8    16    2.8   219      3.9   928.1    0.00       0    100.1
 242   21:10   87.8    16    3.1   171      8.1   928.3    0.00       0    100.0
 242   21:20   90.0    15    2.8   195      7.7   928.4    0.00       0    99.8
 242   21:30   90.1    16    3.3   215      5.7   928.4    0.00       0    99.7
 242   21:40   89.0    16    4.7   235      8.0   928.4    0.00       0    99.6
 242   21:50   88.4    18    5.4   234      8.1   928.4    0.00       0    99.4
 242   22:00   87.6    24    4.5   217      7.7   928.4    0.00       0    99.2
 242   22:10   86.8    29    4.7   233      7.8   928.2    0.00       0    99.1

Return to Boulder City, Nevada graphs page.


Western Regional Climate Center,wrcc@dri.edu